ITY575 LSGG-LIRF
Flight info
| Callsign | ITY575 |
|---|---|
| Flight time | 1h 5m |
| Altitude | 35000 |
| Route | MEDAM DCT NITAM DCT MOGBO DCT ELB/N0443F360 DCT ELKAP |
| Aircraft | A320/M-SDE3FGHIRWY/LB1 |
Departure
| Time | 2026-05-01 10:17 |
|---|---|
| Airport | Geneva International Airport (LSGG) |
Arrival
| Time | 2026-05-01 11:22 |
|---|---|
| Airport | Rome–Fiumicino Leonardo da Vinci International Airport (LIRF) |
| Time | Latitude | Longitude | Altitude | Speed | Heading |
|---|---|---|---|---|---|
| 2026-05-01 09:50 | 46.23054 | 6.10614 | 1393 ft | 0 kts | 136° |
| 2026-05-01 10:06 | 46.23065 | 6.10600 | 1406 ft | 4 kts | 140° |
| 2026-05-01 10:06 | 46.23087 | 6.10579 | 1398 ft | 4 kts | 162° |
| 2026-05-01 10:07 | 46.23110 | 6.10578 | 1396 ft | 4 kts | 218° |
| 2026-05-01 10:07 | 46.23113 | 6.10582 | 1400 ft | 0 kts | 225° |
| 2026-05-01 10:09 | 46.23096 | 6.10557 | 1394 ft | 9 kts | 225° |
| 2026-05-01 10:10 | 46.23054 | 6.10495 | 1398 ft | 8 kts | 225° |
| 2026-05-01 10:10 | 46.22984 | 6.10392 | 1393 ft | 18 kts | 225° |
| 2026-05-01 10:10 | 46.23051 | 6.10155 | 1395 ft | 17 kts | 295° |
| 2026-05-01 10:11 | 46.23005 | 6.10052 | 1395 ft | 15 kts | 226° |
| 2026-05-01 10:11 | 46.22932 | 6.09946 | 1401 ft | 15 kts | 225° |
| 2026-05-01 10:11 | 46.22843 | 6.09815 | 1397 ft | 20 kts | 225° |
| 2026-05-01 10:11 | 46.22742 | 6.09668 | 1403 ft | 21 kts | 226° |
| 2026-05-01 10:12 | 46.22639 | 6.09518 | 1395 ft | 17 kts | 225° |
| 2026-05-01 10:12 | 46.22565 | 6.09382 | 1400 ft | 17 kts | 246° |
| 2026-05-01 10:12 | 46.22551 | 6.09260 | 1408 ft | 0 kts | 270° |
| 2026-05-01 10:14 | 46.22551 | 6.09249 | 1412 ft | 9 kts | 270° |
| 2026-05-01 10:14 | 46.22596 | 6.09163 | 1417 ft | 9 kts | 352° |
| 2026-05-01 10:15 | 46.22642 | 6.09191 | 1419 ft | 6 kts | 41° |
| 2026-05-01 10:15 | 46.22667 | 6.09225 | 1420 ft | 4 kts | 43° |
| 2026-05-01 10:15 | 46.22679 | 6.09242 | 1419 ft | 1 kts | 45° |
| 2026-05-01 10:15 | 46.22682 | 6.09247 | 1418 ft | 0 kts | 45° |
| 2026-05-01 10:16 | 46.22687 | 6.09254 | 1419 ft | 6 kts | 45° |
| 2026-05-01 10:16 | 46.22898 | 6.09564 | 1419 ft | 82 kts | 45° |
| 2026-05-01 10:16 | 46.24255 | 6.11564 | 1610 ft | 172 kts | 45° |
| 2026-05-01 10:17 | 46.25093 | 6.12802 | 2344 ft | 174 kts | 46° |
| 2026-05-01 10:17 | 46.26860 | 6.15438 | 3294 ft | 203 kts | 45° |
| 2026-05-01 10:17 | 46.27919 | 6.16981 | 3624 ft | 227 kts | 45° |
| 2026-05-01 10:18 | 46.30347 | 6.20546 | 4715 ft | 264 kts | 45° |
| 2026-05-01 10:18 | 46.31647 | 6.22457 | 5600 ft | 268 kts | 45° |
| 2026-05-01 10:18 | 46.32964 | 6.24394 | 6518 ft | 271 kts | 46° |
| 2026-05-01 10:19 | 46.34265 | 6.26391 | 7371 ft | 275 kts | 54° |
| 2026-05-01 10:19 | 46.35093 | 6.28885 | 8169 ft | 279 kts | 78° |
| 2026-05-01 10:19 | 46.35122 | 6.31697 | 8958 ft | 284 kts | 102° |
| 2026-05-01 10:20 | 46.32777 | 6.36075 | 10313 ft | 288 kts | 154° |
| 2026-05-01 10:20 | 46.30853 | 6.37102 | 10782 ft | 305 kts | 162° |
| 2026-05-01 10:20 | 46.28751 | 6.38064 | 11071 ft | 327 kts | 162° |
| 2026-05-01 10:20 | 46.26539 | 6.39035 | 11664 ft | 336 kts | 163° |
| 2026-05-01 10:21 | 46.24286 | 6.40013 | 12371 ft | 340 kts | 162° |
| 2026-05-01 10:21 | 46.19715 | 6.42025 | 13899 ft | 347 kts | 162° |
| 2026-05-01 10:21 | 46.17397 | 6.43057 | 14572 ft | 351 kts | 162° |
| 2026-05-01 10:22 | 46.12687 | 6.45160 | 15818 ft | 358 kts | 161° |
| 2026-05-01 10:22 | 46.07891 | 6.47309 | 17105 ft | 364 kts | 161° |
| 2026-05-01 10:23 | 46.05460 | 6.48398 | 17748 ft | 367 kts | 161° |
| 2026-05-01 10:23 | 46.00536 | 6.50588 | 18925 ft | 374 kts | 160° |
| 2026-05-01 10:23 | 45.98035 | 6.51700 | 19498 ft | 377 kts | 160° |
| 2026-05-01 10:24 | 45.92977 | 6.53955 | 20541 ft | 384 kts | 159° |
| 2026-05-01 10:24 | 45.88165 | 6.57323 | 21656 ft | 388 kts | 150° |
| 2026-05-01 10:25 | 45.83362 | 6.60989 | 22737 ft | 394 kts | 150° |
| 2026-05-01 10:25 | 45.78517 | 6.64690 | 23764 ft | 400 kts | 150° |
| 2026-05-01 10:26 | 45.76048 | 6.66569 | 24195 ft | 403 kts | 150° |
| 2026-05-01 10:26 | 45.73562 | 6.68459 | 24606 ft | 406 kts | 150° |
| 2026-05-01 10:26 | 45.68521 | 6.72293 | 25340 ft | 413 kts | 150° |
| 2026-05-01 10:27 | 45.63416 | 6.76171 | 26133 ft | 418 kts | 150° |
| 2026-05-01 10:27 | 45.58250 | 6.80083 | 26873 ft | 423 kts | 150° |
| 2026-05-01 10:28 | 45.55649 | 6.82053 | 27251 ft | 425 kts | 150° |
| 2026-05-01 10:28 | 45.50397 | 6.86020 | 27985 ft | 429 kts | 151° |
| 2026-05-01 10:28 | 45.47752 | 6.88009 | 28331 ft | 431 kts | 151° |
| 2026-05-01 10:29 | 45.42448 | 6.91993 | 29030 ft | 435 kts | 151° |
| 2026-05-01 10:29 | 45.39764 | 6.94009 | 29344 ft | 438 kts | 151° |
| 2026-05-01 10:30 | 45.34350 | 6.98076 | 29971 ft | 443 kts | 151° |
| 2026-05-01 10:30 | 45.28851 | 7.02196 | 30415 ft | 450 kts | 150° |
| 2026-05-01 10:31 | 45.23283 | 7.06353 | 30874 ft | 454 kts | 151° |
| 2026-05-01 10:31 | 45.17681 | 7.10565 | 31353 ft | 456 kts | 147° |
| 2026-05-01 10:32 | 45.12944 | 7.16486 | 31837 ft | 455 kts | 134° |
| 2026-05-01 10:32 | 45.10714 | 7.19663 | 32145 ft | 454 kts | 133° |
| 2026-05-01 10:32 | 45.06277 | 7.26016 | 32767 ft | 453 kts | 133° |
| 2026-05-01 10:33 | 45.01853 | 7.32352 | 33377 ft | 452 kts | 134° |
| 2026-05-01 10:33 | 44.97430 | 7.38640 | 34009 ft | 451 kts | 134° |
| 2026-05-01 10:34 | 44.95216 | 7.41772 | 34321 ft | 450 kts | 134° |
| 2026-05-01 10:34 | 44.92999 | 7.44905 | 34536 ft | 451 kts | 134° |
| 2026-05-01 10:34 | 44.90781 | 7.48041 | 34757 ft | 452 kts | 134° |
| 2026-05-01 10:35 | 44.86323 | 7.54335 | 35176 ft | 454 kts | 134° |
| 2026-05-01 10:35 | 44.84089 | 7.57483 | 35345 ft | 455 kts | 134° |
| 2026-05-01 10:35 | 44.79644 | 7.63745 | 35390 ft | 451 kts | 134° |
| 2026-05-01 10:36 | 44.73013 | 7.73041 | 35390 ft | 451 kts | 134° |
| 2026-05-01 10:37 | 44.68561 | 7.79263 | 35396 ft | 452 kts | 134° |
| 2026-05-01 10:37 | 44.61876 | 7.88609 | 35396 ft | 452 kts | 134° |
| 2026-05-01 10:38 | 44.57404 | 7.94819 | 35395 ft | 452 kts | 134° |
| 2026-05-01 10:38 | 44.52925 | 8.01017 | 35381 ft | 453 kts | 134° |
| 2026-05-01 10:39 | 44.48438 | 8.07234 | 35368 ft | 454 kts | 134° |
| 2026-05-01 10:39 | 44.43946 | 8.13452 | 35364 ft | 455 kts | 134° |
| 2026-05-01 10:40 | 44.39437 | 8.19659 | 35359 ft | 455 kts | 134° |
| 2026-05-01 10:40 | 44.34920 | 8.25863 | 35361 ft | 455 kts | 134° |
| 2026-05-01 10:41 | 44.30402 | 8.32058 | 35353 ft | 455 kts | 134° |
| 2026-05-01 10:42 | 44.23611 | 8.41354 | 35344 ft | 457 kts | 134° |
| 2026-05-01 10:42 | 44.19067 | 8.47556 | 35343 ft | 457 kts | 134° |
| 2026-05-01 10:43 | 44.14543 | 8.53710 | 35344 ft | 458 kts | 134° |
| 2026-05-01 10:43 | 44.09979 | 8.59902 | 35344 ft | 458 kts | 134° |
| 2026-05-01 10:44 | 44.05409 | 8.66095 | 35346 ft | 459 kts | 134° |
| 2026-05-01 10:44 | 44.00835 | 8.72291 | 35369 ft | 459 kts | 133° |
| 2026-05-01 10:45 | 43.96248 | 8.78475 | 35362 ft | 460 kts | 133° |
| 2026-05-01 10:45 | 43.91655 | 8.84656 | 35357 ft | 460 kts | 133° |
| 2026-05-01 10:46 | 43.87057 | 8.90838 | 35350 ft | 460 kts | 133° |
| 2026-05-01 10:46 | 43.82459 | 8.96998 | 35346 ft | 461 kts | 134° |
| 2026-05-01 10:47 | 43.77830 | 9.03182 | 35346 ft | 462 kts | 134° |
| 2026-05-01 10:47 | 43.73199 | 9.09344 | 35374 ft | 462 kts | 133° |
| 2026-05-01 10:48 | 43.68560 | 9.15512 | 35359 ft | 463 kts | 133° |
| 2026-05-01 10:48 | 43.63914 | 9.21679 | 35349 ft | 464 kts | 133° |
| 2026-05-01 10:49 | 43.59255 | 9.27851 | 35341 ft | 464 kts | 133° |
| 2026-05-01 10:49 | 43.54622 | 9.33980 | 35341 ft | 465 kts | 133° |
| 2026-05-01 10:50 | 43.49954 | 9.40140 | 35343 ft | 465 kts | 133° |
| 2026-05-01 10:50 | 43.45270 | 9.46298 | 35384 ft | 465 kts | 133° |
| 2026-05-01 10:51 | 43.40582 | 9.52456 | 35346 ft | 467 kts | 133° |
| 2026-05-01 10:51 | 43.35877 | 9.58631 | 35325 ft | 468 kts | 133° |
| 2026-05-01 10:52 | 43.31151 | 9.64807 | 35329 ft | 469 kts | 133° |
| 2026-05-01 10:52 | 43.26410 | 9.70974 | 35325 ft | 470 kts | 133° |
| 2026-05-01 10:53 | 43.21660 | 9.77146 | 35331 ft | 470 kts | 133° |
| 2026-05-01 10:53 | 43.16912 | 9.83316 | 35328 ft | 471 kts | 133° |
| 2026-05-01 10:54 | 43.12146 | 9.89490 | 35340 ft | 472 kts | 133° |
| 2026-05-01 10:54 | 43.07430 | 9.95755 | 35331 ft | 469 kts | 124° |
| 2026-05-01 10:55 | 43.04281 | 10.01749 | 35322 ft | 467 kts | 120° |
| 2026-05-01 10:55 | 43.00578 | 10.09046 | 35324 ft | 467 kts | 120° |
| 2026-05-01 10:56 | 42.96869 | 10.16348 | 35314 ft | 468 kts | 120° |
| 2026-05-01 10:56 | 42.93136 | 10.23653 | 35344 ft | 470 kts | 120° |
| 2026-05-01 10:57 | 42.89379 | 10.30969 | 35317 ft | 472 kts | 120° |
| 2026-05-01 10:57 | 42.85606 | 10.38309 | 35074 ft | 473 kts | 120° |
| 2026-05-01 10:57 | 42.83720 | 10.41971 | 34834 ft | 473 kts | 120° |
| 2026-05-01 10:58 | 42.81829 | 10.45636 | 34584 ft | 472 kts | 120° |
| 2026-05-01 10:58 | 42.79940 | 10.49286 | 34345 ft | 471 kts | 120° |
| 2026-05-01 10:58 | 42.78050 | 10.52929 | 34085 ft | 471 kts | 120° |
| 2026-05-01 10:58 | 42.76165 | 10.56565 | 33812 ft | 470 kts | 120° |
| 2026-05-01 10:59 | 42.74301 | 10.60163 | 33600 ft | 473 kts | 120° |
| 2026-05-01 10:59 | 42.72404 | 10.63826 | 33332 ft | 475 kts | 120° |
| 2026-05-01 10:59 | 42.70547 | 10.67541 | 33070 ft | 474 kts | 118° |
| 2026-05-01 10:59 | 42.68780 | 10.71306 | 32806 ft | 471 kts | 116° |
| 2026-05-01 11:00 | 42.67081 | 10.75082 | 32369 ft | 466 kts | 115° |
| 2026-05-01 11:00 | 42.65413 | 10.78854 | 31793 ft | 468 kts | 115° |
| 2026-05-01 11:00 | 42.63733 | 10.82647 | 31208 ft | 468 kts | 115° |
| 2026-05-01 11:00 | 42.62046 | 10.86402 | 30634 ft | 464 kts | 115° |
| 2026-05-01 11:01 | 42.60356 | 10.90109 | 30018 ft | 460 kts | 115° |
| 2026-05-01 11:01 | 42.58666 | 10.93771 | 29456 ft | 454 kts | 116° |
| 2026-05-01 11:01 | 42.56990 | 10.97379 | 28896 ft | 450 kts | 116° |
| 2026-05-01 11:01 | 42.55330 | 11.00940 | 28518 ft | 441 kts | 116° |
| 2026-05-01 11:02 | 42.53710 | 11.04405 | 28196 ft | 431 kts | 115° |
| 2026-05-01 11:02 | 42.52121 | 11.07819 | 27731 ft | 426 kts | 115° |
| 2026-05-01 11:02 | 42.50556 | 11.11200 | 27234 ft | 421 kts | 115° |
| 2026-05-01 11:02 | 42.49005 | 11.14548 | 26744 ft | 418 kts | 115° |
| 2026-05-01 11:03 | 42.47462 | 11.17868 | 26244 ft | 414 kts | 114° |
| 2026-05-01 11:03 | 42.45935 | 11.21153 | 25787 ft | 410 kts | 113° |
| 2026-05-01 11:03 | 42.44633 | 11.24511 | 25345 ft | 396 kts | 103° |
| 2026-05-01 11:03 | 42.43812 | 11.27994 | 24910 ft | 382 kts | 93° |
| 2026-05-01 11:04 | 42.43390 | 11.31489 | 24523 ft | 374 kts | 89° |
| 2026-05-01 11:04 | 42.43013 | 11.34964 | 24054 ft | 373 kts | 89° |
| 2026-05-01 11:04 | 42.42625 | 11.38420 | 23576 ft | 370 kts | 90° |
| 2026-05-01 11:04 | 42.42236 | 11.41848 | 23056 ft | 367 kts | 90° |
| 2026-05-01 11:05 | 42.41848 | 11.45257 | 22450 ft | 367 kts | 90° |
| 2026-05-01 11:05 | 42.41459 | 11.48694 | 21705 ft | 372 kts | 90° |
| 2026-05-01 11:05 | 42.41065 | 11.52170 | 20981 ft | 378 kts | 90° |
| 2026-05-01 11:05 | 42.40520 | 11.55749 | 20184 ft | 399 kts | 101° |
| 2026-05-01 11:06 | 42.39285 | 11.59199 | 19421 ft | 417 kts | 117° |
| 2026-05-01 11:06 | 42.37350 | 11.62180 | 18817 ft | 427 kts | 131° |
| 2026-05-01 11:06 | 42.35199 | 11.64939 | 18174 ft | 424 kts | 128° |
| 2026-05-01 11:07 | 42.31771 | 11.71161 | 17357 ft | 404 kts | 119° |
| 2026-05-01 11:07 | 42.30180 | 11.74206 | 17087 ft | 400 kts | 119° |
| 2026-05-01 11:07 | 42.28585 | 11.77268 | 16816 ft | 397 kts | 119° |
| 2026-05-01 11:07 | 42.27001 | 11.80312 | 16559 ft | 395 kts | 119° |
| 2026-05-01 11:08 | 42.25427 | 11.83337 | 16303 ft | 393 kts | 119° |
| 2026-05-01 11:08 | 42.23855 | 11.86350 | 16038 ft | 391 kts | 119° |
| 2026-05-01 11:08 | 42.20727 | 11.92323 | 15530 ft | 388 kts | 120° |
| 2026-05-01 11:09 | 42.19173 | 11.95284 | 15280 ft | 386 kts | 120° |
| 2026-05-01 11:09 | 42.17631 | 11.98214 | 14905 ft | 381 kts | 120° |
| 2026-05-01 11:09 | 42.16107 | 12.01116 | 14424 ft | 378 kts | 120° |
| 2026-05-01 11:10 | 42.13176 | 12.06670 | 13463 ft | 349 kts | 121° |
| 2026-05-01 11:10 | 42.11781 | 12.09308 | 12894 ft | 344 kts | 121° |
| 2026-05-01 11:10 | 42.10404 | 12.11916 | 12488 ft | 339 kts | 121° |
| 2026-05-01 11:10 | 42.09046 | 12.14492 | 12075 ft | 336 kts | 121° |
| 2026-05-01 11:11 | 42.07701 | 12.17045 | 11656 ft | 333 kts | 121° |
| 2026-05-01 11:11 | 42.06370 | 12.19568 | 11142 ft | 329 kts | 121° |
| 2026-05-01 11:11 | 42.05047 | 12.22073 | 10728 ft | 326 kts | 121° |
| 2026-05-01 11:11 | 42.03741 | 12.24542 | 10287 ft | 323 kts | 121° |
| 2026-05-01 11:12 | 42.02439 | 12.26995 | 9863 ft | 320 kts | 122° |
| 2026-05-01 11:12 | 42.01166 | 12.29391 | 9621 ft | 310 kts | 121° |
| 2026-05-01 11:12 | 41.99910 | 12.31722 | 9333 ft | 305 kts | 125° |
| 2026-05-01 11:12 | 41.98414 | 12.33696 | 9100 ft | 299 kts | 138° |
| 2026-05-01 11:13 | 41.96627 | 12.35105 | 8463 ft | 299 kts | 154° |
| 2026-05-01 11:13 | 41.94635 | 12.35968 | 8020 ft | 301 kts | 159° |
| 2026-05-01 11:13 | 41.92639 | 12.36781 | 7647 ft | 299 kts | 160° |
| 2026-05-01 11:13 | 41.90676 | 12.37594 | 7514 ft | 292 kts | 160° |
| 2026-05-01 11:14 | 41.88745 | 12.38401 | 7365 ft | 290 kts | 160° |
| 2026-05-01 11:14 | 41.86835 | 12.39200 | 7150 ft | 282 kts | 159° |
| 2026-05-01 11:14 | 41.84996 | 12.39966 | 7083 ft | 274 kts | 159° |
| 2026-05-01 11:14 | 41.83175 | 12.40730 | 6930 ft | 275 kts | 159° |
| 2026-05-01 11:15 | 41.81370 | 12.41490 | 6554 ft | 268 kts | 159° |
| 2026-05-01 11:15 | 41.79598 | 12.42231 | 6167 ft | 265 kts | 160° |
| 2026-05-01 11:15 | 41.77842 | 12.42963 | 5786 ft | 264 kts | 160° |
| 2026-05-01 11:15 | 41.76096 | 12.43691 | 5409 ft | 262 kts | 160° |
| 2026-05-01 11:16 | 41.74355 | 12.44414 | 4945 ft | 261 kts | 160° |
| 2026-05-01 11:16 | 41.72626 | 12.45126 | 4482 ft | 258 kts | 162° |
| 2026-05-01 11:16 | 41.70870 | 12.45384 | 4021 ft | 255 kts | 188° |
| 2026-05-01 11:16 | 41.69267 | 12.44480 | 3569 ft | 250 kts | 220° |
| 2026-05-01 11:17 | 41.68265 | 12.42654 | 3284 ft | 243 kts | 248° |
| 2026-05-01 11:17 | 41.67720 | 12.40589 | 3055 ft | 235 kts | 254° |
| 2026-05-01 11:17 | 41.67229 | 12.38529 | 2834 ft | 231 kts | 255° |
| 2026-05-01 11:17 | 41.67055 | 12.36453 | 2596 ft | 222 kts | 285° |
| 2026-05-01 11:18 | 41.67676 | 12.34630 | 2502 ft | 214 kts | 308° |
| 2026-05-01 11:18 | 41.68695 | 12.33206 | 2487 ft | 213 kts | 325° |
| 2026-05-01 11:18 | 41.69967 | 12.32264 | 2306 ft | 205 kts | 343° |
| 2026-05-01 11:18 | 41.71311 | 12.31698 | 2060 ft | 201 kts | 345° |
| 2026-05-01 11:19 | 41.72633 | 12.31148 | 1790 ft | 193 kts | 344° |
| 2026-05-01 11:19 | 41.73868 | 12.30632 | 1557 ft | 179 kts | 344° |
| 2026-05-01 11:19 | 41.75022 | 12.30151 | 1321 ft | 170 kts | 346° |
| 2026-05-01 11:19 | 41.76122 | 12.29691 | 1082 ft | 160 kts | 344° |
| 2026-05-01 11:20 | 41.77158 | 12.29259 | 864 ft | 151 kts | 346° |
| 2026-05-01 11:20 | 41.78131 | 12.28861 | 716 ft | 140 kts | 345° |
| 2026-05-01 11:20 | 41.79041 | 12.28469 | 485 ft | 137 kts | 345° |
| 2026-05-01 11:20 | 41.79938 | 12.28070 | 318 ft | 136 kts | 347° |
| 2026-05-01 11:21 | 41.80821 | 12.27716 | 158 ft | 130 kts | 348° |
| 2026-05-01 11:21 | 41.81681 | 12.27357 | 28 ft | 125 kts | 347° |
| 2026-05-01 11:21 | 41.82419 | 12.27069 | 10 ft | 94 kts | 342° |
| 2026-05-01 11:21 | 41.82893 | 12.26867 | 15 ft | 51 kts | 340° |
| 2026-05-01 11:22 | 41.83123 | 12.26666 | 10 ft | 32 kts | 319° |
| 2026-05-01 11:22 | 41.83242 | 12.26468 | 12 ft | 22 kts | 270° |
| 2026-05-01 11:22 | 41.83186 | 12.26419 | 12 ft | 9 kts | 166° |
| 2026-05-01 11:22 | 41.83123 | 12.26443 | 12 ft | 10 kts | 161° |
| 2026-05-01 11:23 | 41.82982 | 12.26502 | 11 ft | 28 kts | 162° |
| 2026-05-01 11:23 | 41.82789 | 12.26585 | 13 ft | 30 kts | 162° |
| 2026-05-01 11:23 | 41.82596 | 12.26669 | 12 ft | 30 kts | 161° |
| 2026-05-01 11:23 | 41.82390 | 12.26753 | 11 ft | 32 kts | 163° |
| 2026-05-01 11:24 | 41.82224 | 12.26821 | 11 ft | 21 kts | 163° |
| 2026-05-01 11:24 | 41.82086 | 12.26878 | 13 ft | 20 kts | 162° |
| 2026-05-01 11:24 | 41.81838 | 12.26981 | 11 ft | 17 kts | 162° |
| 2026-05-01 11:25 | 41.81730 | 12.27026 | 12 ft | 16 kts | 162° |
| 2026-05-01 11:25 | 41.81290 | 12.27212 | 12 ft | 39 kts | 163° |
| 2026-05-01 11:25 | 41.81055 | 12.27311 | 12 ft | 33 kts | 162° |
| 2026-05-01 11:26 | 41.80823 | 12.27331 | 13 ft | 35 kts | 189° |
| 2026-05-01 11:26 | 41.80583 | 12.26958 | 14 ft | 29 kts | 250° |
| 2026-05-01 11:26 | 41.80510 | 12.26702 | 16 ft | 30 kts | 246° |
| 2026-05-01 11:27 | 41.80437 | 12.26428 | 15 ft | 32 kts | 250° |
| 2026-05-01 11:27 | 41.80357 | 12.26147 | 16 ft | 32 kts | 241° |
| 2026-05-01 11:27 | 41.80165 | 12.26001 | 16 ft | 32 kts | 204° |
| 2026-05-01 11:27 | 41.80000 | 12.25900 | 14 ft | 24 kts | 203° |
| 2026-05-01 11:28 | 41.79857 | 12.25807 | 14 ft | 21 kts | 212° |
| 2026-05-01 11:28 | 41.79730 | 12.25722 | 15 ft | 20 kts | 205° |
| 2026-05-01 11:28 | 41.79676 | 12.25678 | 15 ft | 0 kts | 272° |
| 2026-05-01 11:29 | 41.79685 | 12.25633 | 16 ft | 3 kts | 293° |
| 2026-05-01 11:29 | 41.79692 | 12.25612 | 14 ft | 0 kts | 297° |